This is the latest recevied weather packets stored in our database for station/object KK6LZB. If no packets are shown the sender has not sent any weather packets the latest 10 day(s).
| Time | Temp. | Humidity | Pressure | Rain* | Wind** | Luminosity | Snow |
|---|---|---|---|---|---|---|---|
| 1778191227 | 21.11° C | 74% | 1016.8 hPa | 0 mm | - | 586 W/m² | - |
| 1778190923 | 20.56° C | 76% | 1016.9 hPa | 0 mm | - | 595 W/m² | - |
| 1778190621 | 20.56° C | 75% | 1017 hPa | 0 mm | - | 605 W/m² | - |
| 1778190318 | 21.67° C | 73% | 1017.1 hPa | 0 mm | - | 613 W/m² | - |
| 1778190013 | 21.67° C | 74% | 1017.2 hPa | 0 mm | - | 624 W/m² | - |
| 1778189710 | 21.67° C | 74% | 1017.4 hPa | 0 mm | - | 632 W/m² | - |
| 1778189407 | 21.11° C | 76% | 1017.4 hPa | 0 mm | - | 641 W/m² | - |
| 1778189103 | 20.56° C | 75% | 1017.5 hPa | 0 mm | - | 648 W/m² | - |
| 1778188800 | 20.56° C | 76% | 1017.3 hPa | 0 mm | - | 658 W/m² | - |
| 1778188496 | 20° C | 79% | 1017.4 hPa | 0 mm | - | 665 W/m² | - |
| 1778188193 | 20° C | 78% | 1017.4 hPa | 0 mm | - | 672 W/m² | - |
| 1778187890 | 20° C | 77% | 1017.5 hPa | 0 mm | - | 680 W/m² | - |
| 1778187587 | 19.44° C | 79% | 1017.6 hPa | 0 mm | - | 685 W/m² | - |
| 1778187284 | 20.56° C | 78% | 1017.3 hPa | 0 mm | - | 692 W/m² | - |
| 1778186980 | 21.11° C | 74% | 1017.4 hPa | 0 mm | - | 698 W/m² | - |
| 1778186676 | 20° C | 78% | 1017.4 hPa | 0 mm | - | 701 W/m² | - |
| 1778186374 | 20° C | 78% | 1017.4 hPa | 0 mm | - | 706 W/m² | - |
| 1778186072 | 21.67° C | 74% | 1017.5 hPa | 0 mm | - | 710 W/m² | - |
| 1778185768 | 20.56° C | 75% | 1017.5 hPa | 0 mm | - | 714 W/m² | - |
| 1778185465 | 21.11° C | 75% | 1017.3 hPa | 0 mm | - | 717 W/m² | - |
| 1778185161 | 20.56° C | 77% | 1017.6 hPa | 0 mm | - | 721 W/m² | - |
| 1778184856 | 21.11° C | 75% | 1017.5 hPa | 0 mm | - | 725 W/m² | - |
| 1778184553 | 20.56° C | 76% | 1017.3 hPa | 0 mm | - | 725 W/m² | - |
| 1778184248 | 20.56° C | 75% | 1017.5 hPa | 0 mm | - | 728 W/m² | - |
| 1778183945 | 20.56° C | 77% | 1017.5 hPa | 0 mm | - | 730 W/m² | - |
* Rain latest hour (hover to see other rain measurements)
** Current wind speed in m/s (hover to see current wind gust speed)